• Join FlightAware (Why Join?)
  • Login
  • US Flag 
03:24PM EDT


 

Airport Tracker/Info


-or-


 

Live Flight TrackerFlight Track Log ✈ CTL13 ✈ 19-Apr-2013 ✈ KEYE - KMDW

Flight Track Log - Related Links

Times and Time Zones

All times are in EDT time to prevent confusion due to time zone crossing. See the CTL13 flight status page for this flight to view local times or setup timezone preferences in your user account.

Time Position Orientation Groundspeed Altitude Reporting Facility
EDT Latitude Longitude Course Direction KTS MPH feet Rate Location/Type
09:05PM 39.9167 -86.2833 360° North 170 196 2,700  Level Indianapolis TRACON
09:06PM 39.9667 -86.2667 14° North 169 194 3,400 660 Climbing Indianapolis TRACON
09:07PM 40.0167 -86.2500 14° North 171 197 4,100 720 Climbing Indianapolis TRACON
09:08PM 40.0667 -86.2167 27° Northeast 170 196 4,900 420 Climbing Indianapolis TRACON
09:10PM 39.8336 -86.2933 17° North  Level FlightAware Approximate
09:10PM 40.1081 -86.1960 21° North  Level FlightAware Approximate
09:12PM 40.2228 -86.1517 13° North 195 224 6,000  Level Chicago Center
09:13PM 40.2617 -86.1389 14° North 190 219 5,900 -120 Descending Chicago Center
09:13PM 40.2722 -86.1322 26° Northeast 191 220 5,900 -120 Level Chicago Center
09:14PM 40.3031 -86.1547 331° Northwest 159 183 5,800 60 Descending Chicago Center
09:14PM 40.3114 -86.1550 359° North 166 191 6,000 60 Climbing Chicago Center
09:15PM 40.3442 -86.1733 337° Northwest 151 174 5,900  Descending Chicago Center
09:15PM 40.3522 -86.1753 350° North 159 183 6,000  Climbing Chicago Center
09:16PM 40.3831 -86.1919 338° Northwest 152 175 5,900  Descending Chicago Center
09:16PM 40.3925 -86.1925 357° North 155 178 6,000  Climbing Chicago Center
09:17PM 40.3835 -86.0922 13° North  Level FlightAware Approximate
09:17PM 40.4244 -86.2078 340° North 152 175 5,900  Level Chicago Center
09:17PM 40.4317 -86.2103 345° North 152 175 6,000  Climbing Chicago Center
09:18PM 40.4633 -86.2264 339° North 153 176 5,900  Descending Chicago Center
09:18PM 40.4728 -86.2289 349° North 153 176 6,000  Climbing Chicago Center
09:19PM 40.5064 -86.2481 337° Northwest 155 178 5,900  Descending Chicago Center
09:19PM 40.5131 -86.2494 351° North 153 176 6,000 60 Climbing Chicago Center
09:20PM 40.5456 -86.2667 338° Northwest 156 180 6,000  Level Chicago Center
09:20PM 40.5625 -86.2719 347° North 156 180 6,000  Level Chicago Center
09:21PM 40.5867 -86.2881 333° Northwest 152 175 6,000  Level Chicago Center
09:21PM 40.6011 -86.2931 345° North 154 177 6,000 60 Level Chicago Center
09:22PM 40.6256 -86.3067 337° Northwest 151 174 6,100  Climbing Chicago Center
09:22PM 40.6406 -86.3122 344° North 152 175 6,000 -240 Descending Chicago Center
09:23PM 40.6667 -86.3256 339° North 151 174 5,900 -120 Descending Chicago Center
09:23PM 40.6794 -86.3292 348° North 151 174 5,900 60 Level Chicago Center
09:24PM 40.7058 -86.3414 341° North 152 175 6,000  Climbing Chicago Center
09:24PM 40.7200 -86.3456 347° North 151 174 5,900  Descending Chicago Center
09:25PM 40.7469 -86.3603 338° Northwest 146 168 6,000  Climbing Chicago Center
09:25PM 40.7597 -86.3653 343° North 152 175 5,900  Descending Chicago Center
09:26PM 40.7878 -86.3819 336° Northwest 149 171 6,000 60 Climbing Chicago Center
09:26PM 40.8053 -86.3897 341° North 150 173 6,000  Level Chicago Center
09:27PM 40.8247 -86.4006 337° Northwest 151 174 6,000 60 Level Chicago Center
09:27PM 40.8450 -86.4086 343° North 151 174 6,100  Climbing Chicago Center
09:28PM 40.8847 -86.4275 340° North 152 175 6,000  Descending Chicago Center
09:29PM 40.9244 -86.4472 339° North 153 176 6,100  Climbing Chicago Center
09:30PM 40.9639 -86.4658 340° North 149 171 6,000 -120 Descending Chicago Center
09:31PM 41.0025 -86.4850 339° North 149 171 5,900  Descending Chicago Center
09:33PM 41.0400 -86.5056 338° Northwest 147 169 6,000  Climbing Chicago Center
09:34PM 41.0686 -86.5428 316° Northwest 148 170 6,000  Level Chicago Center
09:35PM 41.1011 -86.5858 315° West 141 162 6,000  Level Chicago Center
09:36PM 41.1292 -86.6239 314° West 142 163 6,000  Level Chicago Center
09:37PM 41.1583 -86.6600 317° Northwest 144 166 6,000  Level Chicago Center
09:38PM 41.1883 -86.6981 316° Northwest 147 169 6,000  Level Chicago Center
09:39PM 41.2150 -86.7333 315° West 147 169 6,000  Level Chicago Center
09:40PM 41.2508 -86.7792 316° Northwest 148 170 6,000  Level Chicago Center
09:41PM 41.2778 -86.8167 314° West 144 166 6,000  Level Chicago Center
09:42PM 41.3056 -86.8547 314° West 145 167 6,100  Climbing Chicago Center
09:43PM 41.3336 -86.8917 315° West 143 165 6,000 -60 Descending Chicago Center
09:44PM 41.3631 -86.9289 317° Northwest 145 167 6,000 -60 Level Chicago Center
09:45PM 41.3889 -86.9669 312° West 143 165 5,900  Descending Chicago Center
09:46PM 41.4219 -87.0125 314° West 143 165 6,000  Climbing Chicago Center
09:47PM 41.4506 -87.0525 314° West 147 169 6,000  Level Chicago Center
09:48PM 41.4764 -87.0942 310° West 147 169 6,000  Level Chicago Center
09:49PM 41.4950 -87.1403 298° West 147 169 6,000 -300 Level Chicago Center
09:50PM 41.5125 -87.1892 296° West 146 168 5,400 -720 Descending Chicago Center
09:51PM 41.5317 -87.2433 295° West 158 182 4,600 -720 Descending Chicago Center
09:52PM 41.5519 -87.2939 298° West 158 182 4,000 -360 Descending Chicago Center
09:53PM 41.5744 -87.3519 297° West 153 176 3,900  Descending Chicago Center
09:54PM 41.5906 -87.3975 295° West 146 168 4,000  Climbing Chicago Center
09:55PM 41.6031 -87.4456 289° West 141 162 3,900 -60 Descending Chicago Center
09:56PM 41.6147 -87.4964 287° West 142 163 3,900  Level Chicago Center
09:57PM 41.6350 -87.5433 300° West 144 166 3,900  Level Chicago Center
09:58PM 41.6633 -87.5828 314° West 145 167 3,900 -360 Level Chicago Center
09:59PM 41.6908 -87.6225 313° West 145 167 3,200 -840 Descending Chicago Center
10:00PM 41.7167 -87.6667 308° West 155 178 2,300 -900 Descending Chicago TRACON
10:01PM 41.7500 -87.7000 323° Northwest 143 165 1,600 -780 Descending Chicago TRACON
10:02PM 41.7667 -87.7333 304° West 90 104 800 -840 Descending Chicago TRACON
10:04PM 41.7833 -87.7500 334° Northwest  Level FlightAware Approximate